createdAt,value
2023-07-27T00:00:14.003Z,99.90
2023-07-27T00:02:43.585Z,99.90
2023-07-27T00:05:11.052Z,99.90
2023-07-27T00:07:38.357Z,99.90
2023-07-27T00:10:06.035Z,99.90
2023-07-27T00:12:33.332Z,99.90
2023-07-27T00:15:00.914Z,99.90
2023-07-27T00:17:28.640Z,99.90
2023-07-27T00:19:56.083Z,99.90
2023-07-27T00:22:23.522Z,99.90
2023-07-27T00:24:54.474Z,99.90
2023-07-27T00:27:28.168Z,99.90
2023-07-27T00:29:56.161Z,99.90
2023-07-27T00:32:25.008Z,99.90
2023-07-27T00:34:53.099Z,99.90
2023-07-27T00:37:20.767Z,99.90
2023-07-27T00:40:01.221Z,99.90
2023-07-27T00:42:34.369Z,99.90
2023-07-27T00:45:01.929Z,99.90
2023-07-27T00:47:29.663Z,99.90
2023-07-27T00:50:00.438Z,99.90
2023-07-27T00:52:28.243Z,99.90
2023-07-27T00:54:56.692Z,99.90
2023-07-27T00:57:28.383Z,99.90
2023-07-27T00:59:57.358Z,99.90
2023-07-27T01:02:25.122Z,99.90
2023-07-27T01:04:54.952Z,99.90
2023-07-27T01:07:22.229Z,99.90
2023-07-27T01:09:49.887Z,99.90
2023-07-27T01:12:21.963Z,99.90
2023-07-27T01:15:13.785Z,99.90
2023-07-27T01:17:44.796Z,99.90
2023-07-27T01:20:33.554Z,99.90
2023-07-27T01:23:09.951Z,99.90
2023-07-27T01:25:57.924Z,99.90
2023-07-27T01:28:51.613Z,99.90
2023-07-27T01:31:32.145Z,99.90
2023-07-27T01:34:01.112Z,99.90
2023-07-27T01:36:31.869Z,99.90
2023-07-27T01:39:01.263Z,99.90
2023-07-27T01:41:29.541Z,99.90
2023-07-27T01:43:57.117Z,99.90
2023-07-27T01:46:24.689Z,99.90
2023-07-27T01:48:52.782Z,99.90
2023-07-27T01:51:20.486Z,99.90
2023-07-27T01:53:47.788Z,99.90
2023-07-27T01:56:15.122Z,99.90
2023-07-27T01:58:42.604Z,99.90
2023-07-27T02:01:09.896Z,99.90
2023-07-27T02:03:37.764Z,99.90
2023-07-27T02:06:05.069Z,99.90
2023-07-27T02:08:32.659Z,99.90
2023-07-27T02:11:06.706Z,99.90
2023-07-27T02:13:49.164Z,99.90
2023-07-27T02:16:28.982Z,99.90
2023-07-27T02:18:57.431Z,99.90
2023-07-27T02:21:24.825Z,99.90
2023-07-27T02:23:52.008Z,99.90
2023-07-27T02:26:19.281Z,99.90
2023-07-27T02:28:46.468Z,99.90
2023-07-27T02:31:13.796Z,99.90
2023-07-27T02:33:41.489Z,99.90
2023-07-27T02:36:11.732Z,99.90
2023-07-27T02:38:39.542Z,99.90
2023-07-27T02:41:06.928Z,99.90
2023-07-27T02:43:36.903Z,99.90
2023-07-27T02:46:09.821Z,99.90
2023-07-27T02:48:37.062Z,99.90
2023-07-27T02:51:06.493Z,99.90
2023-07-27T02:53:33.913Z,99.90
2023-07-27T02:56:07.930Z,99.90
2023-07-27T02:58:48.452Z,99.90
2023-07-27T03:01:19.603Z,99.90
2023-07-27T03:04:00.109Z,99.90
2023-07-27T03:09:40.228Z,99.90
2023-07-27T03:12:08.924Z,99.90
2023-07-27T03:14:36.168Z,99.90
2023-07-27T03:17:04.391Z,99.90
2023-07-27T03:19:31.879Z,99.90
2023-07-27T03:21:59.134Z,99.90
2023-07-27T03:24:26.547Z,99.90
2023-07-27T03:26:53.955Z,99.90
2023-07-27T03:29:21.718Z,99.90
2023-07-27T03:31:49.070Z,99.90
2023-07-27T03:34:16.421Z,99.90
2023-07-27T03:36:43.651Z,99.90
2023-07-27T03:39:10.900Z,99.90
2023-07-27T03:41:38.905Z,99.90
2023-07-27T03:44:07.665Z,99.90
2023-07-27T03:46:35.470Z,99.90
2023-07-27T03:49:02.944Z,99.90
2023-07-27T03:51:30.081Z,99.90
2023-07-27T03:53:57.569Z,99.90
2023-07-27T03:56:39.589Z,99.90
2023-07-27T03:59:07.048Z,99.90
2023-07-27T04:01:34.809Z,99.90
2023-07-27T04:04:02.298Z,99.90
2023-07-27T04:06:30.393Z,99.90
2023-07-27T04:08:57.480Z,99.90
2023-07-27T04:11:25.229Z,99.90
2023-07-27T04:13:52.531Z,99.90
2023-07-27T04:16:19.777Z,99.90
2023-07-27T04:18:47.287Z,99.90
2023-07-27T04:21:14.727Z,99.90
2023-07-27T04:23:42.302Z,99.90
2023-07-27T04:26:09.588Z,99.90
2023-07-27T04:28:36.909Z,99.90
2023-07-27T04:31:07.526Z,99.90
2023-07-27T04:33:35.137Z,99.90
2023-07-27T04:36:02.674Z,99.90
2023-07-27T04:38:30.821Z,99.90
2023-07-27T04:40:58.216Z,99.90
2023-07-27T04:43:25.460Z,99.90
2023-07-27T04:45:52.881Z,99.90
2023-07-27T04:48:20.360Z,99.90
2023-07-27T04:50:49.113Z,99.90
2023-07-27T04:53:16.356Z,99.90
2023-07-27T04:55:43.656Z,99.90
2023-07-27T04:58:11.507Z,99.90
2023-07-27T05:00:39.074Z,99.90
2023-07-27T05:03:06.420Z,99.90
2023-07-27T05:05:33.725Z,99.90
2023-07-27T05:08:00.876Z,99.90
2023-07-27T05:10:28.335Z,99.90
2023-07-27T05:12:55.689Z,99.90
2023-07-27T05:15:22.936Z,99.90
2023-07-27T05:17:50.205Z,99.90
2023-07-27T05:20:17.710Z,99.90
2023-07-27T05:22:44.899Z,99.90
2023-07-27T05:25:12.370Z,99.90
2023-07-27T05:27:39.704Z,99.90
2023-07-27T05:30:09.693Z,99.90
2023-07-27T05:32:38.962Z,99.90
2023-07-27T05:35:06.429Z,99.90
2023-07-27T05:37:33.723Z,99.90
2023-07-27T05:40:01.113Z,99.90
2023-07-27T05:42:31.200Z,99.90
2023-07-27T05:44:58.681Z,99.90
2023-07-27T05:47:26.332Z,99.90
2023-07-27T05:49:53.858Z,99.90
2023-07-27T05:52:21.086Z,99.90
2023-07-27T05:54:48.390Z,99.90
2023-07-27T05:57:15.669Z,99.90
2023-07-27T05:59:52.096Z,99.90
2023-07-27T06:02:19.889Z,99.90
2023-07-27T06:04:47.288Z,99.90
2023-07-27T06:07:14.361Z,99.90
2023-07-27T06:09:41.859Z,99.90
2023-07-27T06:12:15.127Z,99.90
2023-07-27T06:14:42.911Z,99.90
2023-07-27T06:17:10.135Z,99.90
2023-07-27T06:19:39.750Z,99.90
2023-07-27T06:22:07.842Z,99.90
2023-07-27T06:24:35.158Z,99.90
2023-07-27T06:27:02.371Z,99.90
2023-07-27T06:29:29.876Z,99.90
2023-07-27T06:31:57.072Z,99.90
2023-07-27T06:34:24.293Z,99.90
2023-07-27T06:36:51.708Z,99.90
2023-07-27T06:39:18.878Z,99.90
2023-07-27T06:41:46.113Z,99.90
2023-07-27T06:44:13.777Z,99.90
2023-07-27T06:46:41.376Z,99.90
2023-07-27T06:49:12.111Z,99.90
2023-07-27T06:51:39.866Z,99.90
2023-07-27T06:54:06.962Z,99.90
2023-07-27T06:56:34.694Z,99.90
2023-07-27T06:59:02.372Z,99.90
2023-07-27T07:01:30.408Z,99.90
2023-07-27T07:03:57.835Z,99.90
2023-07-27T07:06:27.505Z,99.90
2023-07-27T07:08:54.621Z,99.90
2023-07-27T07:11:21.850Z,99.90
2023-07-27T07:13:49.341Z,99.90
2023-07-27T07:16:16.561Z,99.90
2023-07-27T07:18:44.028Z,99.90
2023-07-27T07:21:11.837Z,99.90
2023-07-27T07:23:39.926Z,99.90
2023-07-27T07:26:07.367Z,99.90
2023-07-27T07:28:34.798Z,99.90
2023-07-27T07:31:02.022Z,99.90
2023-07-27T07:33:29.214Z,99.90
2023-07-27T07:35:56.726Z,99.90
2023-07-27T07:38:23.996Z,99.90
2023-07-27T07:40:51.062Z,99.90
2023-07-27T07:43:19.134Z,99.90
2023-07-27T07:45:46.390Z,99.90
2023-07-27T07:48:14.032Z,99.90
2023-07-27T07:50:41.586Z,99.90
2023-07-27T07:53:12.106Z,99.90
2023-07-27T07:55:43.890Z,99.90
2023-07-27T07:58:11.417Z,99.90
2023-07-27T08:00:39.101Z,99.90
2023-07-27T08:03:06.600Z,99.90
2023-07-27T08:05:34.055Z,99.90
2023-07-27T08:08:02.718Z,99.90
2023-07-27T08:10:30.107Z,99.90
2023-07-27T08:12:57.616Z,99.90
2023-07-27T08:15:24.835Z,99.90
2023-07-27T08:17:52.178Z,99.90
2023-07-27T08:20:19.394Z,99.90
2023-07-27T08:22:46.729Z,99.90
2023-07-27T08:25:22.036Z,99.90
2023-07-27T08:27:52.140Z,99.90
2023-07-27T08:30:19.958Z,99.90
2023-07-27T08:32:48.369Z,99.90
2023-07-27T08:35:16.150Z,99.90
2023-07-27T08:37:43.788Z,99.90
2023-07-27T08:40:11.486Z,99.90
2023-07-27T08:42:39.104Z,99.90
2023-07-27T08:45:07.848Z,99.90
2023-07-27T08:47:35.421Z,99.90
2023-07-27T08:50:04.237Z,99.90
2023-07-27T08:52:34.257Z,99.90
2023-07-27T08:55:01.551Z,99.90
2023-07-27T08:57:28.862Z,99.90
2023-07-27T08:59:59.615Z,99.90
2023-07-27T09:02:26.995Z,99.90
2023-07-27T09:04:54.472Z,99.90
2023-07-27T09:07:22.179Z,99.90
2023-07-27T09:09:56.157Z,99.90
2023-07-27T09:12:25.552Z,99.90
2023-07-27T09:14:52.913Z,99.90
2023-07-27T09:17:20.352Z,99.90
2023-07-27T09:19:51.438Z,99.90
2023-07-27T09:22:19.182Z,99.90
2023-07-27T09:24:46.513Z,99.90
2023-07-27T09:27:17.429Z,99.90
2023-07-27T09:29:45.630Z,99.90
2023-07-27T09:32:12.908Z,99.90
2023-07-27T09:34:40.529Z,99.90
2023-07-27T09:37:07.992Z,99.90
2023-07-27T09:39:36.726Z,99.90
2023-07-27T09:42:05.215Z,99.90
2023-07-27T09:44:32.555Z,99.90
2023-07-27T09:46:59.837Z,99.90
2023-07-27T09:49:27.382Z,99.90
2023-07-27T09:51:54.593Z,99.90
2023-07-27T09:54:22.033Z,99.90
2023-07-27T09:56:49.536Z,99.90
2023-07-27T09:59:16.908Z,99.90
2023-07-27T10:01:44.255Z,99.90
2023-07-27T10:04:11.990Z,99.90
2023-07-27T10:06:40.324Z,99.90
2023-07-27T10:09:18.351Z,99.90
2023-07-27T10:12:06.007Z,99.90
2023-07-27T10:14:33.562Z,99.90
2023-07-27T10:17:05.408Z,99.90
2023-07-27T10:19:45.668Z,99.90
2023-07-27T10:22:29.463Z,99.90
2023-07-27T10:24:58.282Z,99.90
2023-07-27T10:27:29.272Z,99.90
2023-07-27T10:30:17.371Z,99.90
2023-07-27T10:33:10.196Z,99.90
2023-07-27T10:36:04.168Z,99.90
2023-07-27T10:38:36.915Z,99.90
2023-07-27T10:41:17.028Z,99.90
2023-07-27T10:44:09.426Z,99.90
2023-07-27T10:46:49.053Z,99.90
2023-07-27T10:49:17.202Z,99.90
2023-07-27T10:52:03.496Z,99.90
2023-07-27T10:54:30.811Z,99.90
2023-07-27T10:57:07.906Z,99.90
2023-07-27T10:59:48.187Z,99.90
2023-07-27T11:02:36.884Z,99.90
2023-07-27T11:05:12.626Z,99.90
2023-07-27T11:07:42.439Z,99.90
2023-07-27T11:10:26.240Z,99.90
2023-07-27T11:12:57.438Z,99.90
2023-07-27T11:15:26.870Z,99.90
2023-07-27T11:17:55.492Z,99.90
2023-07-27T11:20:30.452Z,99.90
2023-07-27T11:22:58.338Z,99.90
2023-07-27T11:25:33.814Z,99.90
2023-07-27T11:28:03.740Z,99.90
2023-07-27T11:30:32.252Z,99.90
2023-07-27T11:33:02.842Z,99.90
2023-07-27T11:35:30.995Z,99.90
2023-07-27T11:37:58.763Z,99.90
2023-07-27T11:40:30.337Z,99.90
2023-07-27T11:42:57.771Z,98.40
2023-07-27T11:45:26.153Z,95.50
2023-07-27T11:47:56.044Z,95.50
2023-07-27T11:50:26.373Z,95.00
2023-07-27T11:53:07.118Z,91.10
2023-07-27T11:55:40.389Z,92.30
2023-07-27T11:58:14.426Z,92.10
2023-07-27T12:00:41.875Z,91.20
2023-07-27T12:03:22.067Z,91.50
2023-07-27T12:05:50.509Z,82.60
2023-07-27T12:13:59.256Z,87.50
2023-07-27T12:18:51.006Z,89.50
2023-07-27T12:24:25.600Z,94.90
2023-07-27T12:39:53.484Z,90.90
2023-07-27T12:42:27.060Z,92.60
2023-07-27T12:44:55.274Z,95.30
2023-07-27T12:47:22.510Z,92.60
2023-07-27T12:50:25.038Z,92.90
2023-07-27T12:52:55.474Z,90.60
2023-07-27T12:55:22.782Z,94.30
2023-07-27T12:57:50.086Z,94.50
2023-07-27T13:00:17.882Z,95.00
2023-07-27T13:02:45.458Z,96.20
2023-07-27T13:05:17.099Z,96.40
2023-07-27T13:07:45.742Z,99.00
2023-07-27T13:10:13.559Z,99.50
2023-07-27T13:12:41.104Z,97.50
2023-07-27T13:15:12.270Z,96.10
2023-07-27T13:17:40.498Z,94.50
2023-07-27T13:20:14.448Z,91.60
2023-07-27T13:22:42.234Z,86.70
2023-07-27T13:25:09.985Z,86.90
2023-07-27T13:27:40.307Z,74.80
2023-07-27T13:30:12.336Z,80.40
2023-07-27T13:32:43.741Z,75.10
2023-07-27T13:35:11.393Z,78.10
2023-07-27T13:37:41.786Z,86.60
2023-07-27T13:40:15.677Z,84.40
2023-07-27T13:42:50.244Z,87.80
2023-07-27T13:45:20.369Z,90.20
2023-07-27T13:48:08.469Z,86.10
2023-07-27T13:50:48.161Z,89.80
2023-07-27T13:53:15.928Z,87.50
2023-07-27T13:55:43.351Z,90.40
2023-07-27T13:58:10.877Z,92.40
2023-07-27T14:00:41.547Z,93.00
2023-07-27T14:03:11.695Z,93.40
2023-07-27T14:05:42.818Z,97.50
2023-07-27T14:08:18.754Z,89.50
2023-07-27T14:10:46.667Z,92.00
2023-07-27T14:13:14.317Z,87.30
2023-07-27T14:15:45.886Z,87.70
2023-07-27T14:18:13.381Z,89.20
2023-07-27T14:20:43.606Z,91.90
2023-07-27T14:23:10.767Z,98.90
2023-07-27T14:25:38.488Z,97.60
2023-07-27T14:28:05.918Z,95.70
2023-07-27T14:30:33.348Z,96.60
2023-07-27T14:33:00.913Z,97.50
2023-07-27T14:35:28.215Z,97.60
2023-07-27T14:37:55.651Z,96.40
2023-07-27T14:42:54.686Z,94.20
2023-07-27T14:45:23.091Z,94.10
2023-07-27T14:47:51.535Z,93.90
2023-07-27T14:53:28.492Z,96.20
2023-07-27T14:55:56.539Z,96.30
2023-07-27T14:58:24.951Z,94.40
2023-07-27T15:00:56.200Z,88.80
2023-07-27T15:03:23.827Z,89.90
2023-07-27T15:06:05.173Z,91.50
2023-07-27T15:08:40.508Z,88.30
2023-07-27T15:13:44.301Z,79.30
2023-07-27T15:16:11.844Z,85.80
2023-07-27T15:18:45.181Z,86.30
2023-07-27T15:21:12.796Z,88.30
2023-07-27T15:23:43.162Z,88.60
2023-07-27T15:26:24.825Z,88.40
2023-07-27T15:29:02.371Z,87.00
2023-07-27T15:31:35.725Z,86.30
2023-07-27T15:34:03.411Z,89.00
2023-07-27T15:36:31.683Z,92.00
2023-07-27T15:38:59.408Z,89.90
2023-07-27T15:41:27.037Z,90.30
2023-07-27T15:43:54.397Z,84.90
2023-07-27T15:46:24.023Z,86.90
2023-07-27T15:48:56.004Z,94.40
2023-07-27T15:51:25.674Z,92.60
2023-07-27T15:53:55.483Z,89.80
2023-07-27T15:56:25.026Z,88.90
2023-07-27T15:58:52.435Z,92.50
2023-07-27T16:01:22.665Z,91.90
2023-07-27T16:03:52.701Z,93.70
2023-07-27T16:06:20.094Z,93.30
2023-07-27T16:08:47.276Z,93.00
2023-07-27T16:11:14.637Z,94.10
2023-07-27T16:13:41.919Z,93.90
2023-07-27T16:16:09.507Z,92.60
2023-07-27T16:18:40.211Z,93.20
2023-07-27T16:21:15.426Z,92.40
2023-07-27T16:23:42.957Z,91.60
2023-07-27T16:26:10.365Z,91.70
2023-07-27T16:28:42.406Z,94.70
2023-07-27T16:31:09.704Z,88.60
2023-07-27T16:33:37.139Z,93.50
2023-07-27T16:36:12.242Z,96.00
2023-07-27T16:38:39.910Z,97.40
2023-07-27T16:41:13.640Z,99.90
2023-07-27T16:43:43.407Z,99.90
2023-07-27T16:46:13.718Z,99.90
2023-07-27T16:49:15.604Z,99.90
2023-07-27T16:51:43.580Z,99.90
2023-07-27T16:54:12.046Z,99.90
2023-07-27T16:56:41.900Z,99.90
2023-07-27T16:59:37.383Z,99.90
2023-07-27T17:02:17.473Z,99.90
2023-07-27T17:04:54.699Z,99.90
2023-07-27T17:10:14.355Z,99.90
2023-07-27T17:13:38.856Z,99.90
2023-07-27T17:16:42.589Z,99.90
2023-07-27T17:19:14.425Z,99.90
2023-07-27T17:21:56.872Z,99.90
2023-07-27T17:24:24.583Z,99.90
2023-07-27T17:27:01.115Z,99.90
2023-07-27T17:33:00.077Z,99.90
2023-07-27T17:35:57.963Z,99.90
2023-07-27T17:38:30.136Z,99.90
2023-07-27T17:41:00.385Z,99.90
2023-07-27T17:44:42.077Z,99.90
2023-07-27T17:47:53.819Z,99.90
2023-07-27T17:50:43.886Z,99.90
2023-07-27T17:53:43.553Z,99.90
2023-07-27T17:56:42.280Z,99.40
2023-07-27T17:59:18.929Z,99.00
2023-07-27T18:01:55.992Z,98.80
2023-07-27T18:04:28.225Z,99.90
2023-07-27T18:07:10.516Z,99.90
2023-07-27T18:09:54.679Z,99.90
2023-07-27T18:12:23.916Z,99.90
2023-07-27T18:14:52.290Z,99.90
2023-07-27T18:17:24.663Z,99.90
2023-07-27T18:19:52.513Z,99.90
2023-07-27T18:22:23.779Z,99.90
2023-07-27T18:24:54.734Z,99.90
2023-07-27T18:27:44.636Z,99.90
2023-07-27T18:30:26.985Z,99.90
2023-07-27T18:32:58.928Z,99.90
2023-07-27T18:35:39.982Z,99.90
2023-07-27T18:38:22.672Z,99.90
2023-07-27T18:40:51.592Z,99.90
2023-07-27T18:43:44.701Z,99.90
2023-07-27T18:46:29.562Z,99.90
2023-07-27T18:49:04.564Z,99.90
2023-07-27T18:51:41.690Z,99.90
2023-07-27T18:54:52.807Z,99.90
2023-07-27T19:00:55.969Z,99.90
2023-07-27T19:03:26.276Z,99.90
2023-07-27T19:06:16.574Z,99.90
2023-07-27T19:08:58.440Z,99.90
2023-07-27T19:11:40.788Z,99.90
2023-07-27T19:16:10.844Z,99.90
2023-07-27T19:17:58.966Z,99.90
2023-07-27T19:20:52.366Z,99.90
2023-07-27T19:23:43.109Z,99.90
2023-07-27T19:26:42.728Z,99.90
2023-07-27T19:33:14.707Z,99.90
2023-07-27T19:36:03.771Z,99.90
2023-07-27T19:39:09.726Z,99.90
2023-07-27T19:41:57.233Z,99.90
2023-07-27T19:44:30.691Z,99.90
2023-07-27T19:47:09.545Z,99.90
2023-07-27T19:52:46.692Z,99.90
2023-07-27T19:55:49.124Z,99.90
2023-07-27T19:58:17.390Z,99.90
2023-07-27T20:00:50.100Z,99.90
2023-07-27T20:03:25.590Z,99.90
2023-07-27T20:05:57.055Z,99.90
2023-07-27T20:08:51.805Z,99.90
2023-07-27T20:11:22.454Z,99.90
2023-07-27T20:14:35.267Z,99.90
2023-07-27T20:18:03.401Z,99.90
2023-07-27T20:20:17.315Z,99.90
2023-07-27T20:24:02.265Z,99.90
2023-07-27T20:28:10.592Z,99.90
2023-07-27T20:31:42.122Z,99.90
2023-07-27T20:39:05.720Z,99.90
2023-07-27T20:42:03.646Z,99.90
2023-07-27T20:44:47.223Z,99.90
2023-07-27T20:47:56.973Z,99.90
2023-07-27T20:50:27.959Z,99.90
2023-07-27T20:53:02.789Z,99.90
2023-07-27T20:55:41.787Z,99.90
2023-07-27T20:58:28.441Z,99.90
2023-07-27T21:01:03.339Z,99.90
2023-07-27T21:03:35.509Z,99.90
2023-07-27T21:06:17.014Z,99.90
2023-07-27T21:09:15.472Z,99.90
2023-07-27T21:11:49.069Z,99.90
2023-07-27T21:14:21.058Z,99.90
2023-07-27T21:16:52.034Z,99.90
2023-07-27T21:19:30.899Z,99.90
2023-07-27T21:22:09.760Z,99.90
2023-07-27T21:24:40.032Z,99.90
2023-07-27T21:27:19.896Z,99.90
2023-07-27T21:29:59.844Z,99.90
2023-07-27T21:32:29.945Z,99.90
2023-07-27T21:37:56.936Z,99.90
2023-07-27T21:40:59.206Z,99.90
2023-07-27T21:43:27.672Z,99.90
2023-07-27T21:46:23.457Z,99.90
2023-07-27T21:48:53.685Z,99.90
2023-07-27T21:51:41.361Z,99.90
2023-07-27T21:54:19.373Z,99.90
2023-07-27T21:56:56.898Z,99.90
2023-07-27T21:59:30.806Z,99.90
2023-07-27T22:02:05.489Z,99.90
2023-07-27T22:04:44.744Z,99.90
2023-07-27T22:07:18.691Z,99.90
2023-07-27T22:09:56.085Z,99.90
2023-07-27T22:12:31.926Z,99.90
2023-07-27T22:17:54.813Z,99.90
2023-07-27T22:20:26.211Z,99.90
2023-07-27T22:22:59.764Z,99.90
2023-07-27T22:25:28.116Z,99.90
2023-07-27T22:28:02.710Z,99.90
2023-07-27T22:30:42.441Z,99.90
2023-07-27T22:33:29.858Z,99.90
2023-07-27T22:35:57.809Z,99.90
2023-07-27T22:38:28.392Z,99.90
2023-07-27T22:40:57.465Z,99.90
2023-07-27T22:43:28.902Z,99.90
2023-07-27T22:46:11.664Z,99.90
2023-07-27T22:48:46.206Z,99.90
2023-07-27T22:51:21.548Z,99.90
2023-07-27T22:53:50.146Z,99.90
2023-07-27T22:56:17.785Z,99.90
2023-07-27T22:58:46.488Z,99.90
2023-07-27T23:01:21.568Z,99.90
2023-07-27T23:03:49.426Z,99.90
2023-07-27T23:06:20.592Z,99.90
2023-07-27T23:08:54.195Z,99.90
2023-07-27T23:11:22.199Z,99.90
2023-07-27T23:13:49.857Z,99.90
2023-07-27T23:16:17.795Z,99.90
2023-07-27T23:18:46.882Z,99.90
2023-07-27T23:21:14.242Z,99.90
2023-07-27T23:24:00.006Z,99.90
2023-07-27T23:26:27.768Z,99.90
2023-07-27T23:28:58.998Z,99.90
2023-07-27T23:31:42.141Z,99.90
2023-07-27T23:34:13.007Z,99.90
2023-07-27T23:36:40.424Z,99.90
2023-07-27T23:39:07.950Z,99.90
2023-07-27T23:41:35.290Z,99.90
2023-07-27T23:50:57.813Z,99.90
2023-07-27T23:54:19.458Z,99.90
2023-07-27T23:57:17.413Z,99.90
